createdAt,value
2022-07-26T00:01:21.859Z,9.18
2022-07-26T00:03:51.173Z,14.25
2022-07-26T00:06:21.463Z,9.00
2022-07-26T00:08:50.362Z,6.78
2022-07-26T00:11:19.749Z,9.77
2022-07-26T00:13:48.798Z,12.25
2022-07-26T00:16:17.050Z,9.13
2022-07-26T00:18:47.507Z,10.52
2022-07-26T00:21:15.947Z,8.00
2022-07-26T00:23:45.576Z,12.50
2022-07-26T00:26:13.886Z,10.02
2022-07-26T00:28:42.578Z,8.88
2022-07-26T00:31:12.159Z,7.97
2022-07-26T00:33:41.020Z,6.35
2022-07-26T00:36:09.644Z,10.55
2022-07-26T00:38:38.426Z,10.23
2022-07-26T00:41:09.226Z,9.07
2022-07-26T00:43:37.755Z,9.32
2022-07-26T00:46:06.295Z,8.32
2022-07-26T00:48:35.895Z,8.52
2022-07-26T00:51:04.915Z,6.43
2022-07-26T00:53:33.209Z,11.30
2022-07-26T00:56:01.425Z,6.78
2022-07-26T00:58:31.534Z,8.00
2022-07-26T01:00:59.783Z,6.40
2022-07-26T01:03:30.313Z,9.05
2022-07-26T01:06:07.086Z,9.35
2022-07-26T01:08:35.522Z,9.10
2022-07-26T01:11:03.908Z,10.45
2022-07-26T01:13:35.589Z,6.13
2022-07-26T01:16:04.455Z,7.07
2022-07-26T01:18:33.021Z,13.10
2022-07-26T01:21:13.182Z,4.50
2022-07-26T01:23:44.666Z,7.80
2022-07-26T01:26:13.812Z,10.32
2022-07-26T01:28:42.648Z,11.60
2022-07-26T01:31:10.909Z,7.32
2022-07-26T01:33:39.851Z,8.68
2022-07-26T01:36:08.684Z,8.02
2022-07-26T01:38:36.972Z,6.97
2022-07-26T01:41:07.002Z,11.48
2022-07-26T01:43:35.550Z,7.82
2022-07-26T01:46:04.746Z,7.10
2022-07-26T01:48:33.516Z,5.72
2022-07-26T01:51:02.352Z,8.98
2022-07-26T01:53:30.717Z,5.43
2022-07-26T01:55:59.698Z,9.27
2022-07-26T01:58:29.456Z,7.22
2022-07-26T02:00:58.103Z,12.80
2022-07-26T02:03:29.067Z,14.88
2022-07-26T02:05:57.254Z,21.92
2022-07-26T02:08:25.492Z,17.98
2022-07-26T02:11:04.028Z,18.45
2022-07-26T02:13:35.774Z,14.48
2022-07-26T02:16:06.131Z,12.85
2022-07-26T02:18:34.606Z,22.70
2022-07-26T02:21:03.376Z,18.80
2022-07-26T02:23:32.433Z,15.13
2022-07-26T02:26:01.129Z,19.05
2022-07-26T02:28:29.488Z,19.15
2022-07-26T02:30:59.279Z,19.77
2022-07-26T02:33:28.476Z,21.08
2022-07-26T02:35:56.709Z,17.83
2022-07-26T02:38:25.386Z,21.65
2022-07-26T02:40:53.692Z,20.52
2022-07-26T02:43:21.928Z,20.85
2022-07-26T02:46:01.850Z,18.85
2022-07-26T02:48:32.731Z,18.92
2022-07-26T02:51:01.374Z,15.90
2022-07-26T02:53:30.207Z,17.27
2022-07-26T02:55:58.588Z,19.15
2022-07-26T02:58:28.053Z,17.92
2022-07-26T03:00:56.353Z,23.58
2022-07-26T03:03:24.590Z,19.23
2022-07-26T03:05:54.942Z,22.02
2022-07-26T03:08:23.679Z,17.80
2022-07-26T03:10:52.036Z,19.27
2022-07-26T03:13:20.401Z,16.23
2022-07-26T03:15:48.706Z,19.08
2022-07-26T03:18:17.013Z,18.80
2022-07-26T03:20:45.544Z,17.33
2022-07-26T03:23:15.252Z,16.20
2022-07-26T03:25:43.865Z,17.15
2022-07-26T03:28:17.468Z,17.77
2022-07-26T03:30:47.750Z,19.55
2022-07-26T03:33:16.651Z,19.80
2022-07-26T03:35:44.832Z,17.33
2022-07-26T03:38:14.524Z,15.70
2022-07-26T03:40:42.934Z,17.08
2022-07-26T03:43:11.271Z,16.90
2022-07-26T03:45:39.501Z,13.98
2022-07-26T03:48:08.397Z,21.92
2022-07-26T03:50:36.686Z,17.02
2022-07-26T03:53:05.143Z,13.57
2022-07-26T03:55:52.485Z,16.52
2022-07-26T03:58:20.962Z,15.82
2022-07-26T04:00:49.530Z,17.30
2022-07-26T04:03:17.717Z,15.15
2022-07-26T04:05:48.938Z,17.88
2022-07-26T04:08:17.935Z,19.00
2022-07-26T04:10:51.094Z,17.13
2022-07-26T04:13:19.585Z,16.20
2022-07-26T04:15:47.856Z,17.92
2022-07-26T04:18:16.163Z,16.77
2022-07-26T04:20:45.026Z,16.10
2022-07-26T04:23:14.329Z,17.30
2022-07-26T04:25:42.538Z,13.05
2022-07-26T04:28:13.055Z,10.63
2022-07-26T04:30:41.927Z,17.42
2022-07-26T04:33:10.429Z,16.27
2022-07-26T04:35:38.879Z,16.20
2022-07-26T04:38:07.494Z,13.02
2022-07-26T04:40:40.430Z,13.15
2022-07-26T04:43:15.771Z,12.15
2022-07-26T04:45:46.538Z,15.90
2022-07-26T04:48:17.494Z,10.90
2022-07-26T04:50:45.836Z,15.00
2022-07-26T04:53:14.648Z,12.85
2022-07-26T04:55:43.773Z,11.85
2022-07-26T04:58:12.688Z,12.27
2022-07-26T05:01:09.506Z,14.05
2022-07-26T05:03:31.803Z,12.68
2022-07-26T05:06:00.004Z,11.50
2022-07-26T05:08:28.276Z,12.07
2022-07-26T05:10:56.714Z,12.93
2022-07-26T05:13:30.609Z,11.63
2022-07-26T05:16:00.242Z,11.40
2022-07-26T05:18:29.982Z,11.73
2022-07-26T05:21:01.844Z,12.43
2022-07-26T05:23:30.102Z,13.68
2022-07-26T05:25:58.307Z,9.98
2022-07-26T05:28:26.726Z,8.25
2022-07-26T05:30:55.016Z,8.88
2022-07-26T05:33:23.321Z,8.95
2022-07-26T05:35:51.791Z,13.23
2022-07-26T05:38:21.781Z,13.57
2022-07-26T05:40:50.935Z,11.27
2022-07-26T05:43:20.038Z,9.98
2022-07-26T05:45:48.439Z,13.02
2022-07-26T05:48:16.772Z,7.80
2022-07-26T05:50:46.189Z,7.47
2022-07-26T05:53:14.429Z,8.88
2022-07-26T05:55:43.979Z,11.07
2022-07-26T05:58:12.384Z,9.20
2022-07-26T06:00:42.318Z,11.02
2022-07-26T06:03:26.064Z,7.85
2022-07-26T06:05:56.686Z,9.45
2022-07-26T06:08:27.708Z,7.70
2022-07-26T06:10:57.626Z,10.43
2022-07-26T06:13:25.944Z,13.05
2022-07-26T06:15:54.281Z,11.93
2022-07-26T06:18:23.086Z,10.75
2022-07-26T06:20:51.550Z,10.18
2022-07-26T06:23:33.965Z,8.25
2022-07-26T06:26:05.720Z,8.48
2022-07-26T06:28:34.933Z,7.30
2022-07-26T06:31:03.343Z,9.15
2022-07-26T06:33:31.999Z,8.38
2022-07-26T06:36:00.663Z,13.60
2022-07-26T06:38:29.490Z,6.40
2022-07-26T06:40:57.814Z,11.48
2022-07-26T06:43:27.735Z,13.18
2022-07-26T06:45:56.112Z,6.90
2022-07-26T06:48:24.368Z,10.00
2022-07-26T06:50:52.974Z,9.10
2022-07-26T06:53:21.757Z,10.35
2022-07-26T06:55:50.066Z,9.13
2022-07-26T06:58:18.513Z,11.13
2022-07-26T07:00:48.496Z,11.15
2022-07-26T07:03:17.049Z,9.70
2022-07-26T07:05:50.048Z,11.90
2022-07-26T07:08:21.664Z,8.00
2022-07-26T07:10:52.833Z,13.77
2022-07-26T07:13:22.632Z,14.75
2022-07-26T07:15:52.241Z,11.88
2022-07-26T07:18:22.181Z,9.60
2022-07-26T07:20:50.391Z,14.63
2022-07-26T07:23:22.222Z,12.43
2022-07-26T07:25:51.075Z,6.70
2022-07-26T07:28:19.732Z,13.35
2022-07-26T07:30:48.620Z,12.48
2022-07-26T07:33:22.758Z,11.57
2022-07-26T07:35:52.256Z,10.63
2022-07-26T07:38:22.277Z,11.32
2022-07-26T07:40:51.073Z,11.57
2022-07-26T07:43:19.320Z,10.98
2022-07-26T07:45:48.342Z,10.27
2022-07-26T07:48:18.683Z,8.00
2022-07-26T07:50:47.465Z,11.13
2022-07-26T07:53:15.875Z,11.02
2022-07-26T07:55:46.584Z,14.27
2022-07-26T07:58:17.293Z,10.80
2022-07-26T08:00:46.758Z,9.07
2022-07-26T08:03:19.117Z,8.63
2022-07-26T08:05:50.039Z,10.55
2022-07-26T08:08:22.469Z,13.43
2022-07-26T08:10:53.427Z,11.88
2022-07-26T08:13:22.916Z,10.73
2022-07-26T08:15:52.130Z,10.57
2022-07-26T08:18:23.265Z,12.05
2022-07-26T08:20:53.196Z,11.27
2022-07-26T08:23:22.697Z,8.88
2022-07-26T08:26:01.891Z,14.45
2022-07-26T08:28:58.311Z,13.50
2022-07-26T08:31:22.233Z,9.57
2022-07-26T08:33:52.028Z,9.40
2022-07-26T08:36:20.452Z,11.55
2022-07-26T08:38:49.140Z,13.55
2022-07-26T08:41:18.633Z,11.88
2022-07-26T08:43:52.102Z,18.70
2022-07-26T08:46:28.170Z,12.05
2022-07-26T08:48:58.230Z,10.75
2022-07-26T08:51:28.150Z,9.52
2022-07-26T08:54:04.692Z,5.10
2022-07-26T08:56:35.236Z,8.35
2022-07-26T08:59:07.715Z,10.85
2022-07-26T09:01:36.486Z,7.28
2022-07-26T09:04:31.521Z,9.07
2022-07-26T09:07:04.183Z,10.48
2022-07-26T09:09:33.833Z,7.10
2022-07-26T09:12:16.076Z,10.10
2022-07-26T09:14:46.702Z,9.55
2022-07-26T09:17:16.169Z,11.75
2022-07-26T09:19:46.123Z,7.28
2022-07-26T09:22:16.630Z,6.68
2022-07-26T09:24:46.975Z,12.63
2022-07-26T09:27:16.754Z,7.15
2022-07-26T09:29:47.120Z,9.82
2022-07-26T09:32:18.581Z,7.53
2022-07-26T09:34:53.090Z,7.18
2022-07-26T09:37:35.774Z,6.75
2022-07-26T09:40:06.796Z,8.18
2022-07-26T09:42:35.518Z,7.75
2022-07-26T09:45:15.765Z,13.05
2022-07-26T09:47:44.516Z,7.25
2022-07-26T09:50:16.362Z,6.18
2022-07-26T09:53:08.588Z,7.15
2022-07-26T09:55:54.654Z,9.13
2022-07-26T09:58:24.593Z,9.30
2022-07-26T10:00:52.946Z,8.40
2022-07-26T10:03:24.072Z,7.82
2022-07-26T10:05:54.513Z,10.65
2022-07-26T10:08:23.404Z,8.43
2022-07-26T10:10:56.066Z,7.93
2022-07-26T10:13:25.153Z,8.68
2022-07-26T10:15:53.551Z,8.65
2022-07-26T10:18:44.853Z,8.15
2022-07-26T10:21:25.334Z,7.20
2022-07-26T10:23:56.913Z,5.97
2022-07-26T10:26:42.133Z,2.33
2022-07-26T10:29:27.217Z,5.05
2022-07-26T10:32:16.000Z,8.27
2022-07-26T10:34:44.895Z,6.22
2022-07-26T10:37:27.602Z,4.35
2022-07-26T10:40:22.649Z,8.80
2022-07-26T10:42:51.555Z,10.15
2022-07-26T10:45:23.021Z,4.75
2022-07-26T10:48:12.373Z,7.65
2022-07-26T10:50:41.512Z,6.03
2022-07-26T10:53:17.746Z,4.10
2022-07-26T10:55:48.379Z,4.82
2022-07-26T10:58:17.664Z,8.63
2022-07-26T11:00:56.737Z,9.50
2022-07-26T11:03:25.593Z,4.88
2022-07-26T11:05:53.976Z,7.75
2022-07-26T11:08:31.549Z,8.05
2022-07-26T11:11:03.228Z,7.43
2022-07-26T11:13:36.545Z,6.10
2022-07-26T11:16:08.158Z,7.03
2022-07-26T11:18:37.946Z,7.70
2022-07-26T11:21:11.913Z,7.63
2022-07-26T11:23:44.179Z,6.40
2022-07-26T11:26:16.407Z,10.30
2022-07-26T11:28:54.256Z,9.43
2022-07-26T11:31:49.383Z,6.63
2022-07-26T11:34:19.325Z,6.68
2022-07-26T11:36:48.627Z,7.35
2022-07-26T11:39:24.400Z,6.68
2022-07-26T11:41:57.711Z,8.80
2022-07-26T11:44:26.239Z,6.78
2022-07-26T11:46:56.073Z,11.25
2022-07-26T11:49:51.695Z,6.78
2022-07-26T11:52:14.569Z,7.55
2022-07-26T11:54:48.989Z,6.57
2022-07-26T11:57:18.557Z,5.63
2022-07-26T11:59:48.267Z,7.07
2022-07-26T12:02:17.043Z,5.65
2022-07-26T12:04:46.108Z,11.30
2022-07-26T12:07:16.658Z,9.05
2022-07-26T12:09:50.600Z,5.60
2022-07-26T12:12:24.182Z,6.80
2022-07-26T12:15:00.653Z,11.85
2022-07-26T12:17:35.255Z,6.55
2022-07-26T12:20:14.404Z,7.55
2022-07-26T12:22:53.584Z,8.38
2022-07-26T12:25:28.348Z,7.93
2022-07-26T12:27:57.281Z,5.93
2022-07-26T12:30:25.820Z,6.97
2022-07-26T12:33:03.105Z,8.90
2022-07-26T12:35:35.293Z,9.63
2022-07-26T12:38:04.899Z,5.72
2022-07-26T12:40:42.695Z,6.53
2022-07-26T12:43:12.315Z,5.70
2022-07-26T12:45:40.871Z,8.15
2022-07-26T12:48:11.902Z,7.10
2022-07-26T12:50:40.736Z,6.30
2022-07-26T12:53:12.647Z,6.88
2022-07-26T12:55:43.175Z,3.60
2022-07-26T12:58:11.405Z,5.25
2022-07-26T13:00:39.761Z,5.75
2022-07-26T13:03:08.281Z,7.63
2022-07-26T13:05:36.667Z,10.98
2022-07-26T13:08:05.379Z,6.72
2022-07-26T13:10:35.299Z,6.72
2022-07-26T13:13:06.024Z,9.68
2022-07-26T13:15:36.211Z,6.35
2022-07-26T13:18:07.804Z,5.45
2022-07-26T13:20:38.706Z,7.95
2022-07-26T13:23:11.573Z,8.27
2022-07-26T13:25:41.965Z,5.07
2022-07-26T13:28:12.810Z,4.85
2022-07-26T13:30:43.280Z,5.32
2022-07-26T13:33:12.626Z,5.72
2022-07-26T13:35:42.610Z,4.72
2022-07-26T13:38:11.346Z,6.18
2022-07-26T13:40:40.000Z,4.70
2022-07-26T13:43:08.779Z,6.72
2022-07-26T13:45:38.560Z,8.30
2022-07-26T13:48:07.754Z,5.97
2022-07-26T13:50:36.061Z,5.80
2022-07-26T13:53:04.446Z,4.72
2022-07-26T13:55:32.943Z,4.88
2022-07-26T13:58:04.015Z,4.75
2022-07-26T14:00:36.379Z,4.10
2022-07-26T14:03:06.235Z,4.60
2022-07-26T14:05:35.657Z,5.10
2022-07-26T14:08:04.792Z,9.00
2022-07-26T14:10:37.426Z,4.60
2022-07-26T14:13:06.310Z,4.90
2022-07-26T14:15:34.792Z,5.18
2022-07-26T14:18:03.420Z,7.05
2022-07-26T14:20:33.688Z,5.68
2022-07-26T14:23:01.982Z,6.30
2022-07-26T14:25:30.676Z,3.85
2022-07-26T14:28:01.904Z,4.43
2022-07-26T14:30:30.305Z,6.93
2022-07-26T14:32:58.847Z,3.60
2022-07-26T14:35:28.249Z,3.78
2022-07-26T14:37:58.090Z,3.75
2022-07-26T14:40:26.629Z,7.40
2022-07-26T14:42:55.848Z,6.03
2022-07-26T14:45:24.047Z,10.65
2022-07-26T14:47:52.921Z,10.63
2022-07-26T14:50:23.407Z,7.95
2022-07-26T14:52:52.237Z,10.00
2022-07-26T14:55:25.409Z,6.90
2022-07-26T14:57:54.394Z,6.25
2022-07-26T15:00:22.885Z,6.78
2022-07-26T15:02:51.469Z,5.05
2022-07-26T15:05:20.345Z,4.10
2022-07-26T15:07:48.674Z,3.78
2022-07-26T15:10:17.226Z,4.03
2022-07-26T15:12:47.268Z,3.78
2022-07-26T15:15:15.655Z,4.15
2022-07-26T15:17:44.176Z,5.65
2022-07-26T15:20:12.739Z,3.17
2022-07-26T15:22:41.433Z,5.07
2022-07-26T15:25:09.999Z,5.55
2022-07-26T15:27:38.566Z,3.85
2022-07-26T15:30:13.724Z,5.55
2022-07-26T15:32:44.425Z,4.70
2022-07-26T15:35:14.919Z,5.93
2022-07-26T15:37:44.801Z,6.10
2022-07-26T15:40:14.084Z,8.02
2022-07-26T15:42:46.502Z,6.07
2022-07-26T15:45:17.235Z,6.60
2022-07-26T15:47:56.256Z,4.70
2022-07-26T15:50:28.075Z,7.00
2022-07-26T15:52:56.293Z,7.47
2022-07-26T15:55:24.780Z,10.80
2022-07-26T15:57:54.184Z,7.50
2022-07-26T16:00:23.925Z,5.47
2022-07-26T16:02:52.269Z,6.15
2022-07-26T16:05:21.149Z,6.00
2022-07-26T16:08:29.635Z,11.98
2022-07-26T16:11:22.675Z,8.55
2022-07-26T16:14:30.867Z,5.07
2022-07-26T16:17:03.829Z,8.00
2022-07-26T16:19:32.193Z,8.75
2022-07-26T16:22:00.666Z,7.80
2022-07-26T16:24:29.494Z,5.35
2022-07-26T16:26:57.881Z,6.72
2022-07-26T16:29:26.207Z,7.28
2022-07-26T16:31:56.120Z,8.77
2022-07-26T16:34:25.848Z,9.68
2022-07-26T16:36:54.105Z,7.82
2022-07-26T16:39:22.593Z,8.63
2022-07-26T16:41:50.982Z,6.20
2022-07-26T16:44:20.678Z,6.55
2022-07-26T16:46:50.009Z,6.35
2022-07-26T16:49:18.861Z,6.18
2022-07-26T16:51:48.449Z,5.70
2022-07-26T16:54:16.854Z,4.82
2022-07-26T16:56:45.068Z,6.40
2022-07-26T16:59:13.524Z,10.05
2022-07-26T17:01:42.168Z,12.88
2022-07-26T17:04:11.276Z,5.80
2022-07-26T17:06:39.453Z,11.18
2022-07-26T17:09:15.400Z,7.10
2022-07-26T17:11:44.396Z,8.60
2022-07-26T17:14:15.862Z,14.23
2022-07-26T17:16:44.190Z,14.60
2022-07-26T17:19:12.811Z,13.20
2022-07-26T17:21:41.468Z,11.80
2022-07-26T17:24:11.243Z,11.23
2022-07-26T17:26:39.451Z,6.25
2022-07-26T17:29:08.861Z,8.40
2022-07-26T17:31:37.289Z,14.40
2022-07-26T17:34:05.765Z,9.82
2022-07-26T17:36:34.131Z,9.07
2022-07-26T17:39:02.834Z,6.07
2022-07-26T17:41:33.016Z,6.18
2022-07-26T17:44:03.927Z,10.95
2022-07-26T17:46:33.383Z,8.30
2022-07-26T17:49:02.161Z,6.25
2022-07-26T17:51:30.889Z,9.50
2022-07-26T17:53:59.078Z,10.90
2022-07-26T17:56:27.881Z,6.38
2022-07-26T17:58:57.912Z,10.50
2022-07-26T18:01:26.631Z,9.77
2022-07-26T18:03:55.310Z,6.45
2022-07-26T18:06:23.898Z,8.75
2022-07-26T18:08:52.079Z,7.60
2022-07-26T18:11:20.307Z,9.45
2022-07-26T18:13:48.708Z,12.32
2022-07-26T18:16:18.861Z,10.50
2022-07-26T18:18:47.172Z,12.48
2022-07-26T18:21:15.632Z,11.15
2022-07-26T18:24:06.735Z,7.50
2022-07-26T18:26:32.629Z,12.07
2022-07-26T18:29:00.816Z,9.80
2022-07-26T18:31:30.430Z,5.45
2022-07-26T18:34:01.854Z,6.03
2022-07-26T18:36:34.311Z,6.95
2022-07-26T18:39:02.908Z,6.85
2022-07-26T18:41:32.747Z,5.30
2022-07-26T18:44:02.817Z,7.00
2022-07-26T18:46:33.659Z,4.28
2022-07-26T18:49:02.446Z,6.82
2022-07-26T18:51:31.028Z,5.07
2022-07-26T18:54:00.215Z,5.25
2022-07-26T18:56:28.566Z,2.30
2022-07-26T18:58:56.969Z,5.65
2022-07-26T19:01:26.088Z,3.85
2022-07-26T19:03:55.897Z,6.03
2022-07-26T19:06:24.686Z,9.32
2022-07-26T19:08:53.135Z,8.30
2022-07-26T19:11:21.440Z,9.35
2022-07-26T19:13:49.685Z,6.93
2022-07-26T19:16:18.926Z,7.30
2022-07-26T19:18:50.844Z,8.35
2022-07-26T19:21:22.815Z,8.18
2022-07-26T19:23:51.411Z,7.75
2022-07-26T19:26:20.309Z,7.57
2022-07-26T19:28:48.800Z,14.73
2022-07-26T19:31:17.290Z,9.57
2022-07-26T19:33:45.623Z,9.15
2022-07-26T19:36:18.216Z,6.75
2022-07-26T19:38:57.003Z,9.80
2022-07-26T19:41:25.439Z,8.15
2022-07-26T19:43:53.733Z,11.10
2022-07-26T19:46:22.115Z,13.52
2022-07-26T19:48:50.789Z,6.60
2022-07-26T19:51:19.084Z,8.30
2022-07-26T19:53:47.548Z,8.63
2022-07-26T19:56:17.565Z,10.40
2022-07-26T19:58:46.790Z,9.35
2022-07-26T20:01:17.186Z,4.68
2022-07-26T20:03:45.636Z,8.48
2022-07-26T20:06:13.924Z,12.07
2022-07-26T20:08:42.865Z,8.25
2022-07-26T20:11:12.149Z,3.67
2022-07-26T20:13:42.053Z,9.73
2022-07-26T20:16:10.356Z,11.38
2022-07-26T20:18:39.021Z,10.00
2022-07-26T20:21:07.344Z,7.60
2022-07-26T20:23:35.602Z,7.20
2022-07-26T20:26:04.188Z,7.28
2022-07-26T20:28:32.951Z,6.18
2022-07-26T20:31:02.655Z,7.28
2022-07-26T20:33:31.146Z,9.32
2022-07-26T20:35:59.692Z,5.40
2022-07-26T20:38:28.217Z,13.48
2022-07-26T20:40:57.133Z,10.05
2022-07-26T20:43:25.584Z,13.80
2022-07-26T20:45:55.905Z,10.77
2022-07-26T20:48:25.934Z,7.80
2022-07-26T20:50:54.325Z,10.85
2022-07-26T20:53:22.522Z,8.57
2022-07-26T20:55:51.040Z,9.32
2022-07-26T20:58:20.032Z,6.82
2022-07-26T21:00:48.346Z,17.58
2022-07-26T21:03:17.301Z,7.80
2022-07-26T21:05:47.423Z,9.35
2022-07-26T21:08:15.945Z,12.85
2022-07-26T21:10:45.984Z,10.70
2022-07-26T21:13:14.364Z,13.07
2022-07-26T21:15:43.201Z,23.77
2022-07-26T21:18:12.345Z,19.95
2022-07-26T21:20:41.577Z,54.53
2022-07-26T21:23:17.483Z,123.80
2022-07-26T21:25:46.781Z,69.28
2022-07-26T21:28:15.009Z,57.78
2022-07-26T21:30:43.276Z,82.15
2022-07-26T21:33:11.656Z,33.85
2022-07-26T21:35:41.894Z,61.72
2022-07-26T21:38:11.928Z,71.25
2022-07-26T21:40:40.509Z,34.63
2022-07-26T21:43:08.682Z,42.83
2022-07-26T21:45:37.096Z,50.88
2022-07-26T21:48:05.959Z,22.85
2022-07-26T21:50:34.169Z,19.08
2022-07-26T21:53:02.392Z,20.30
2022-07-26T21:55:32.654Z,22.33
2022-07-26T21:58:00.983Z,19.65
2022-07-26T22:00:29.320Z,15.88
2022-07-26T22:02:57.696Z,20.48
2022-07-26T22:05:42.597Z,16.73
2022-07-26T22:08:12.845Z,19.80
2022-07-26T22:15:21.763Z,14.05
2022-07-26T22:17:54.842Z,13.18
2022-07-26T22:20:23.712Z,12.82
2022-07-26T22:22:52.420Z,9.93
2022-07-26T22:25:20.885Z,13.23
2022-07-26T22:27:49.333Z,8.85
2022-07-26T22:30:18.274Z,9.43
2022-07-26T22:32:46.644Z,12.65
2022-07-26T22:35:16.984Z,14.07
2022-07-26T22:37:45.707Z,9.20
2022-07-26T22:40:14.297Z,15.18
2022-07-26T22:42:44.549Z,8.55
2022-07-26T22:45:13.357Z,14.35
2022-07-26T22:47:41.741Z,13.18
2022-07-26T22:50:26.373Z,12.13
2022-07-26T22:52:54.732Z,13.85
2022-07-26T22:55:22.941Z,9.88
2022-07-26T22:57:51.590Z,10.75
2022-07-26T23:00:21.311Z,8.15
2022-07-26T23:02:49.622Z,12.95
2022-07-26T23:05:19.361Z,11.68
2022-07-26T23:07:50.464Z,11.13
2022-07-26T23:10:19.312Z,13.40
2022-07-26T23:12:47.625Z,15.13
2022-07-26T23:15:15.968Z,14.52
2022-07-26T23:17:44.400Z,15.05
2022-07-26T23:20:13.222Z,12.43
2022-07-26T23:22:43.343Z,12.05
2022-07-26T23:25:13.200Z,14.38
2022-07-26T23:27:41.534Z,13.20
2022-07-26T23:30:10.457Z,13.98
2022-07-26T23:32:38.919Z,9.05
2022-07-26T23:35:07.821Z,11.88
2022-07-26T23:37:36.062Z,16.23
2022-07-26T23:40:05.378Z,12.35
2022-07-26T23:42:34.989Z,11.55
2022-07-26T23:45:03.267Z,12.57
2022-07-26T23:47:31.767Z,13.25
2022-07-26T23:50:00.041Z,11.98
2022-07-26T23:52:28.407Z,13.85
2022-07-26T23:54:56.959Z,13.73
2022-07-26T23:57:25.197Z,11.80
2022-07-26T23:59:54.884Z,12.18
